Time;durP1;ratioP1;P1;durP2;ratioP2;P2;SDS_P1;SDS_P2;PMS_P1;PMS_P2;Temp;Humidity;BMP_temperature;BMP_pressure;BME280_temperature;BME280_humidity;BME280_pressure;Samples;Min_cycle;Max_cycle;Signal;HPM_P1;HPM_P2
2024/01/18 00:01:17;;;;;;;1.42;1.00;;;8.10;99.90;;;;;;5073945;28;20221;-84
2024/01/18 00:03:44;;;;;;;1.27;0.90;;;8.10;99.90;;;;;;5075894;28;20245;-84
2024/01/18 00:06:11;;;;;;;0.93;0.85;;;8.00;99.90;;;;;;5073067;28;20201;-84
2024/01/18 00:08:37;;;;;;;0.88;0.80;;;8.00;99.90;;;;;;5068450;28;20218;-84
2024/01/18 00:11:04;;;;;;;1.10;1.00;;;7.90;99.90;;;;;;5069839;28;20212;-84
2024/01/18 00:13:31;;;;;;;1.25;0.90;;;7.90;99.90;;;;;;5070710;28;20227;-83
2024/01/18 00:15:58;;;;;;;1.48;1.10;;;7.90;99.90;;;;;;5071248;28;20213;-84
2024/01/18 00:18:26;;;;;;;1.10;1.00;;;7.90;99.90;;;;;;5068048;28;20207;-84
2024/01/18 00:20:53;;;;;;;1.70;0.90;;;7.90;99.90;;;;;;5069119;28;20221;-84
2024/01/18 00:23:19;;;;;;;1.02;0.90;;;7.90;99.90;;;;;;5071091;28;20231;-84
2024/01/18 00:25:45;;;;;;;0.80;0.77;;;7.90;99.90;;;;;;5073657;28;20202;-84
2024/01/18 00:28:12;;;;;;;1.77;1.03;;;7.90;99.90;;;;;;5074016;28;20578;-84
2024/01/18 00:30:39;;;;;;;1.00;0.90;;;7.90;99.90;;;;;;5074235;28;20286;-84
2024/01/18 00:33:06;;;;;;;1.30;1.20;;;7.90;99.90;;;;;;5069894;28;20222;-84
2024/01/18 00:35:34;;;;;;;0.95;0.80;;;7.80;99.90;;;;;;5075142;28;20232;-84
2024/01/18 00:38:01;;;;;;;0.80;0.70;;;7.80;99.90;;;;;;5074716;28;20211;-83
2024/01/18 00:40:27;;;;;;;1.00;0.82;;;7.80;99.90;;;;;;5079347;28;20250;-84
2024/01/18 00:42:54;;;;;;;0.80;0.80;;;7.80;99.90;;;;;;5073542;28;20223;-84
2024/01/18 00:45:21;;;;;;;1.30;1.20;;;7.80;99.90;;;;;;5078614;28;20558;-84
2024/01/18 00:47:48;;;;;;;1.23;1.10;;;7.70;99.90;;;;;;5077014;28;20198;-84
2024/01/18 00:50:15;;;;;;;0.95;0.80;;;7.70;99.90;;;;;;5077896;28;20269;-84
2024/01/18 00:52:43;;;;;;;1.02;0.90;;;7.70;99.90;;;;;;5078943;28;20231;-84
2024/01/18 00:55:11;;;;;;;0.95;0.80;;;7.70;99.90;;;;;;5078001;28;20206;-84
2024/01/18 00:57:37;;;;;;;1.10;0.80;;;7.70;99.90;;;;;;5079775;28;20205;-84
2024/01/18 01:00:06;;;;;;;1.15;1.05;;;7.60;99.90;;;;;;5073673;28;20226;-84
2024/01/18 01:02:32;;;;;;;1.30;1.08;;;7.60;99.90;;;;;;5068189;28;20225;-84
2024/01/18 01:04:59;;;;;;;1.20;0.90;;;7.60;99.90;;;;;;5079636;28;20211;-84
2024/01/18 01:07:26;;;;;;;0.77;0.70;;;7.70;99.90;;;;;;5074461;28;20218;-84
2024/01/18 01:09:54;;;;;;;1.40;0.95;;;7.70;99.90;;;;;;5073920;28;20198;-84
2024/01/18 01:12:21;;;;;;;1.08;0.82;;;7.70;99.90;;;;;;5071877;28;20223;-84
2024/01/18 01:14:47;;;;;;;1.35;1.25;;;7.70;99.90;;;;;;5074345;28;20322;-84
2024/01/18 01:17:14;;;;;;;1.10;1.00;;;7.70;99.90;;;;;;5076633;28;20198;-84
2024/01/18 01:19:41;;;;;;;0.82;0.77;;;7.70;99.90;;;;;;5076576;28;20219;-84
2024/01/18 01:22:08;;;;;;;0.80;0.80;;;7.70;99.90;;;;;;5073570;28;20224;-84
2024/01/18 01:24:38;;;;;;;1.20;1.10;;;7.80;99.90;;;;;;5068126;28;20206;-85
2024/01/18 01:27:06;;;;;;;0.90;0.80;;;7.80;99.90;;;;;;5074288;28;20213;-84
2024/01/18 01:29:33;;;;;;;0.90;0.80;;;7.80;99.90;;;;;;5078146;28;20582;-84
2024/01/18 01:32:00;;;;;;;1.20;1.00;;;7.80;99.90;;;;;;5078850;28;20230;-84
2024/01/18 01:34:27;;;;;;;0.80;0.70;;;7.80;99.90;;;;;;5078834;28;20211;-84
2024/01/18 01:36:53;;;;;;;1.35;1.10;;;7.70;99.90;;;;;;5079037;28;20208;-84
2024/01/18 01:39:21;;;;;;;1.17;0.93;;;7.70;99.90;;;;;;5072824;28;20210;-85
2024/01/18 01:41:48;;;;;;;0.90;0.80;;;7.70;99.90;;;;;;5072267;28;20309;-84
2024/01/18 01:44:16;;;;;;;0.80;0.80;;;7.70;99.90;;;;;;5070507;28;20217;-84
2024/01/18 01:46:42;;;;;;;0.90;0.80;;;7.70;99.90;;;;;;5067538;28;20531;-84
2024/01/18 01:49:10;;;;;;;0.93;0.88;;;7.70;99.90;;;;;;5065703;28;20209;-84
2024/01/18 01:51:42;;;;;;;1.10;1.00;;;7.80;99.90;;;;;;5062263;28;20215;-84
2024/01/18 01:54:11;;;;;;;1.00;0.90;;;7.80;99.90;;;;;;5065311;28;21538;-84
2024/01/18 01:56:39;;;;;;;1.00;0.90;;;7.80;99.90;;;;;;5069051;28;20202;-84
2024/01/18 01:59:09;;;;;;;1.17;1.08;;;7.80;99.90;;;;;;5070624;28;20244;-84
2024/01/18 02:01:37;;;;;;;0.90;0.80;;;7.80;99.90;;;;;;5075634;28;20230;-84
2024/01/18 02:04:04;;;;;;;1.00;0.90;;;7.90;99.90;;;;;;5073840;28;20202;-84
2024/01/18 02:06:33;;;;;;;1.00;0.90;;;7.90;99.90;;;;;;5074588;28;20205;-84
2024/01/18 02:09:02;;;;;;;1.17;0.88;;;7.90;99.90;;;;;;5079830;28;20572;-85
2024/01/18 02:11:29;;;;;;;0.80;0.80;;;7.90;99.90;;;;;;5075767;28;20582;-84
2024/01/18 02:13:56;;;;;;;1.75;0.77;;;7.80;99.90;;;;;;5075504;28;20278;-85
2024/01/18 02:16:23;;;;;;;0.80;0.80;;;7.80;99.90;;;;;;5079306;28;20297;-84
2024/01/18 02:18:51;;;;;;;1.00;0.77;;;7.80;99.90;;;;;;5072110;28;20578;-84
2024/01/18 02:21:18;;;;;;;1.88;0.80;;;7.90;99.90;;;;;;5075863;28;20275;-84
2024/01/18 02:23:49;;;;;;;0.90;0.80;;;7.90;99.90;;;;;;5079330;28;20200;-84
2024/01/18 02:26:17;;;;;;;1.10;1.00;;;7.90;99.90;;;;;;5070465;28;20211;-85
2024/01/18 02:28:54;;;;;;;1.00;0.80;;;8.00;99.90;;;;;;5078967;28;20237;-85
2024/01/18 02:31:21;;;;;;;1.25;1.10;;;8.00;99.90;;;;;;5077974;28;20196;-85
2024/01/18 02:33:48;;;;;;;0.93;0.85;;;8.00;99.90;;;;;;5079752;28;20213;-84
2024/01/18 02:36:15;;;;;;;1.13;0.80;;;8.00;99.90;;;;;;5079804;28;20230;-85
2024/01/18 02:38:42;;;;;;;0.80;0.70;;;8.10;99.90;;;;;;5079931;28;20235;-85
2024/01/18 02:41:09;;;;;;;1.00;0.90;;;8.10;99.90;;;;;;5079828;28;20223;-85
2024/01/18 02:43:37;;;;;;;0.98;0.88;;;8.00;99.90;;;;;;5079046;28;20205;-84
2024/01/18 02:46:04;;;;;;;0.70;0.60;;;8.10;99.90;;;;;;5079748;28;20201;-85
2024/01/18 02:48:31;;;;;;;1.77;1.27;;;8.10;99.90;;;;;;5078963;28;20205;-85
2024/01/18 02:50:57;;;;;;;1.00;0.90;;;8.10;99.90;;;;;;5079456;28;20207;-85
2024/01/18 02:53:24;;;;;;;0.80;0.75;;;8.10;99.90;;;;;;5076016;28;20226;-85
2024/01/18 02:55:51;;;;;;;0.80;0.80;;;8.10;99.90;;;;;;5071715;28;20210;-84
2024/01/18 02:58:18;;;;;;;0.80;0.70;;;8.10;99.90;;;;;;5075579;28;20210;-84
2024/01/18 03:00:47;;;;;;;1.05;0.95;;;8.10;99.90;;;;;;5070528;28;20716;-85
2024/01/18 03:03:14;;;;;;;1.45;0.80;;;8.10;99.90;;;;;;5067434;28;20227;-85
2024/01/18 03:05:42;;;;;;;0.93;0.82;;;8.00;99.90;;;;;;5069715;28;20204;-84
2024/01/18 03:08:09;;;;;;;1.75;0.88;;;8.00;99.90;;;;;;5071330;28;20555;-84
2024/01/18 03:10:36;;;;;;;1.00;0.90;;;8.10;99.90;;;;;;5078542;28;20217;-84
2024/01/18 03:13:02;;;;;;;5.93;1.20;;;8.00;99.90;;;;;;5072111;28;20233;-85
2024/01/18 03:15:29;;;;;;;1.02;0.82;;;8.00;99.90;;;;;;5076549;28;20209;-84
2024/01/18 03:17:57;;;;;;;0.93;0.82;;;8.00;99.90;;;;;;5068493;28;20200;-85
2024/01/18 03:20:24;;;;;;;1.05;0.73;;;8.00;99.90;;;;;;5069696;28;20227;-85
2024/01/18 03:22:51;;;;;;;0.80;0.77;;;8.00;99.90;;;;;;5064538;28;20231;-84
2024/01/18 03:25:18;;;;;;;0.98;0.82;;;7.90;99.90;;;;;;5067105;28;20219;-85
2024/01/18 03:27:45;;;;;;;1.20;0.80;;;7.90;99.90;;;;;;5074255;28;20206;-84
2024/01/18 03:30:12;;;;;;;0.85;0.80;;;7.90;99.90;;;;;;5075359;28;20700;-84
2024/01/18 03:32:39;;;;;;;0.90;0.80;;;7.90;99.90;;;;;;5074788;28;20227;-84
2024/01/18 03:35:08;;;;;;;3.30;0.80;;;7.90;99.90;;;;;;5074042;28;20199;-84
2024/01/18 03:37:35;;;;;;;1.05;0.95;;;7.90;99.90;;;;;;5074329;28;20266;-85
2024/01/18 03:40:02;;;;;;;3.85;1.00;;;7.90;99.90;;;;;;5074852;28;20225;-84
2024/01/18 03:42:29;;;;;;;0.93;0.80;;;7.90;99.90;;;;;;5074091;28;20223;-84
2024/01/18 03:44:55;;;;;;;0.93;0.80;;;7.90;99.90;;;;;;5072474;28;20199;-84
2024/01/18 03:47:22;;;;;;;1.10;1.00;;;7.80;99.90;;;;;;5073448;28;20277;-84
2024/01/18 03:49:49;;;;;;;1.05;0.95;;;7.80;99.90;;;;;;5068896;28;20214;-84
2024/01/18 03:52:18;;;;;;;2.33;1.20;;;7.80;99.90;;;;;;5070666;28;20230;-83
2024/01/18 03:54:48;;;;;;;0.80;0.70;;;7.70;99.90;;;;;;5069105;28;20231;-83
2024/01/18 03:57:14;;;;;;;0.90;0.80;;;7.70;99.90;;;;;;5071136;28;20227;-86
2024/01/18 03:59:41;;;;;;;1.83;1.30;;;7.60;99.90;;;;;;5079103;28;20690;-85
2024/01/18 04:02:08;;;;;;;1.10;0.80;;;7.60;99.90;;;;;;5071911;28;20223;-83
2024/01/18 04:04:35;;;;;;;0.90;0.80;;;7.60;99.90;;;;;;5072507;28;20209;-83
2024/01/18 04:07:02;;;;;;;1.00;0.90;;;7.60;99.90;;;;;;5075634;28;20301;-83
2024/01/18 04:09:30;;;;;;;2.50;2.00;;;7.60;99.90;;;;;;5075468;28;20201;-84
2024/01/18 04:11:56;;;;;;;1.33;1.00;;;7.60;99.90;;;;;;5072659;28;20214;-84
2024/01/18 04:14:24;;;;;;;0.98;0.80;;;7.60;99.90;;;;;;5077934;28;20197;-84
2024/01/18 04:16:50;;;;;;;1.30;1.20;;;7.60;99.90;;;;;;5077734;28;20202;-84
2024/01/18 04:19:17;;;;;;;0.80;0.80;;;7.60;99.90;;;;;;5079813;28;20220;-85
2024/01/18 04:21:44;;;;;;;0.90;0.80;;;7.60;99.90;;;;;;5078558;28;20663;-84
2024/01/18 04:24:11;;;;;;;0.77;0.77;;;7.70;99.90;;;;;;5079777;28;20213;-84
2024/01/18 04:26:39;;;;;;;1.42;1.23;;;7.70;99.90;;;;;;5077226;28;20205;-83
2024/01/18 04:29:06;;;;;;;2.15;0.80;;;7.60;99.90;;;;;;5077703;28;20675;-84
2024/01/18 04:31:33;;;;;;;1.10;1.00;;;7.60;99.90;;;;;;5077981;28;20732;-85
2024/01/18 04:34:00;;;;;;;0.82;0.82;;;7.60;99.90;;;;;;5079471;28;20260;-84
2024/01/18 04:36:27;;;;;;;1.55;1.13;;;7.60;99.90;;;;;;5073918;28;20209;-84
2024/01/18 04:38:53;;;;;;;0.82;0.82;;;7.60;99.90;;;;;;5076060;28;20295;-84
2024/01/18 04:41:20;;;;;;;1.20;1.10;;;7.60;99.90;;;;;;5077851;28;20303;-82
2024/01/18 04:43:48;;;;;;;1.40;1.17;;;7.60;99.90;;;;;;5085683;28;20517;-82
2024/01/18 04:46:15;;;;;;;1.85;1.00;;;7.60;99.90;;;;;;5087323;28;20464;-82
2024/01/18 04:48:42;;;;;;;1.20;0.90;;;7.60;99.90;;;;;;5086100;28;20198;-82
2024/01/18 04:51:09;;;;;;;0.80;0.80;;;7.60;99.90;;;;;;5088384;28;20200;-82
2024/01/18 04:53:36;;;;;;;1.55;0.95;;;7.60;99.90;;;;;;5089392;28;20271;-82
2024/01/18 04:56:03;;;;;;;1.10;0.90;;;7.60;99.90;;;;;;5076755;28;20588;-81
2024/01/18 04:58:29;;;;;;;1.42;1.08;;;7.60;99.90;;;;;;5074066;28;20648;-81
2024/01/18 05:00:58;;;;;;;3.50;1.33;;;7.60;99.90;;;;;;5078013;28;20218;-81
2024/01/18 05:03:25;;;;;;;0.80;0.80;;;7.60;99.90;;;;;;5078069;28;20730;-81
2024/01/18 05:05:52;;;;;;;1.00;0.90;;;7.60;99.90;;;;;;5078507;28;20698;-82
2024/01/18 05:08:19;;;;;;;1.45;1.35;;;7.60;99.90;;;;;;5080540;28;20217;-81
2024/01/18 05:10:45;;;;;;;1.13;0.88;;;7.60;99.90;;;;;;5080346;28;20205;-81
2024/01/18 05:13:12;;;;;;;1.20;1.10;;;7.70;99.90;;;;;;5081216;28;20229;-81
2024/01/18 05:15:39;;;;;;;0.80;0.80;;;7.70;99.90;;;;;;5083062;28;20216;-81
2024/01/18 05:18:07;;;;;;;1.25;0.90;;;7.70;99.90;;;;;;5084184;28;20253;-81
2024/01/18 05:20:34;;;;;;;1.42;1.33;;;7.70;99.90;;;;;;5083904;28;20297;-81
2024/01/18 05:23:01;;;;;;;0.70;0.70;;;7.70;99.90;;;;;;5084272;28;20226;-81
2024/01/18 05:25:28;;;;;;;1.00;0.88;;;7.70;99.90;;;;;;5078993;28;20211;-82
2024/01/18 05:27:55;;;;;;;1.05;0.90;;;7.70;99.90;;;;;;5073028;28;20207;-81
2024/01/18 05:30:23;;;;;;;1.00;0.82;;;7.70;99.90;;;;;;5072238;28;20211;-81
2024/01/18 05:32:50;;;;;;;0.90;0.80;;;7.70;99.90;;;;;;5076699;28;20222;-81
2024/01/18 05:35:18;;;;;;;1.02;0.90;;;7.70;99.90;;;;;;5074395;28;20209;-81
2024/01/18 05:37:45;;;;;;;1.23;0.90;;;7.80;99.90;;;;;;5076262;28;20212;-81
2024/01/18 05:40:12;;;;;;;1.10;0.90;;;7.80;99.90;;;;;;5078160;28;20198;-82
2024/01/18 05:42:39;;;;;;;1.00;0.90;;;7.80;99.90;;;;;;5078548;28;20229;-81
2024/01/18 05:45:07;;;;;;;1.13;1.00;;;7.70;99.90;;;;;;5082343;28;20212;-81
2024/01/18 05:47:33;;;;;;;0.80;0.80;;;7.80;99.90;;;;;;5074467;28;20213;-82
2024/01/18 05:50:01;;;;;;;3.05;1.50;;;7.70;99.90;;;;;;5087721;28;20215;-81
2024/01/18 05:52:29;;;;;;;1.00;0.90;;;7.80;99.90;;;;;;5085517;28;20234;-81
2024/01/18 05:54:56;;;;;;;0.88;0.88;;;7.80;99.90;;;;;;5075386;28;20211;-81
2024/01/18 05:57:23;;;;;;;2.38;1.23;;;7.80;99.90;;;;;;5085178;28;20212;-81
2024/01/18 05:59:50;;;;;;;1.05;0.95;;;7.80;99.90;;;;;;5082884;28;20207;-81
2024/01/18 06:02:20;;;;;;;1.20;1.00;;;7.80;99.90;;;;;;5073808;28;20227;-80
2024/01/18 06:04:47;;;;;;;0.82;0.80;;;7.80;99.90;;;;;;5074966;28;20205;-81
2024/01/18 06:07:13;;;;;;;1.38;1.17;;;7.70;99.90;;;;;;5074105;28;20275;-81
2024/01/18 06:09:42;;;;;;;1.60;1.00;;;7.80;99.90;;;;;;5073900;28;20213;-81
2024/01/18 06:12:09;;;;;;;1.00;0.90;;;7.80;99.90;;;;;;5075076;28;20232;-81
2024/01/18 06:14:35;;;;;;;1.88;1.30;;;7.80;99.90;;;;;;5072849;28;20257;-81
2024/01/18 06:17:02;;;;;;;1.88;1.02;;;7.70;99.90;;;;;;5075383;28;20203;-81
2024/01/18 06:19:29;;;;;;;1.20;0.90;;;7.70;99.90;;;;;;5089050;28;20214;-81
2024/01/18 06:21:56;;;;;;;1.70;0.93;;;7.80;99.90;;;;;;5082882;28;20229;-81
2024/01/18 06:24:22;;;;;;;1.80;1.08;;;7.80;99.90;;;;;;5072915;28;20236;-82
2024/01/18 06:26:50;;;;;;;1.38;1.27;;;7.80;99.90;;;;;;5080369;28;20205;-81
2024/01/18 06:29:17;;;;;;;3.72;3.42;;;7.80;99.90;;;;;;5079610;28;20207;-81
2024/01/18 06:31:44;;;;;;;3.28;2.92;;;7.70;99.90;;;;;;5073865;28;20220;-81
2024/01/18 06:34:11;;;;;;;3.25;2.80;;;7.50;99.90;;;;;;5074390;28;20221;-81
2024/01/18 06:36:38;;;;;;;3.78;3.45;;;7.30;99.90;;;;;;5076037;28;20660;-81
2024/01/18 06:39:05;;;;;;;2.80;2.53;;;7.10;99.90;;;;;;5076240;28;20213;-81
2024/01/18 06:41:32;;;;;;;2.60;2.20;;;6.80;99.90;;;;;;5066706;28;20226;-81
2024/01/18 06:44:00;;;;;;;3.25;2.42;;;6.60;99.90;;;;;;5075170;28;20211;-81
2024/01/18 06:46:29;;;;;;;2.90;2.10;;;6.40;99.90;;;;;;5089398;28;20206;-81
2024/01/18 06:48:57;;;;;;;4.80;2.53;;;6.30;99.90;;;;;;5081395;28;20206;-81
2024/01/18 06:51:24;;;;;;;2.25;1.92;;;6.10;99.90;;;;;;5075279;28;20304;-81
2024/01/18 06:53:50;;;;;;;2.70;2.08;;;6.00;99.90;;;;;;5084377;28;20201;-81
2024/01/18 06:56:17;;;;;;;2.10;1.63;;;6.00;99.90;;;;;;5074799;28;20205;-81
2024/01/18 06:58:44;;;;;;;3.75;2.10;;;5.80;99.90;;;;;;5080228;28;20201;-81
2024/01/18 07:01:13;;;;;;;1.73;1.60;;;5.70;99.90;;;;;;5071011;28;20216;-81
2024/01/18 07:03:41;;;;;;;1.52;1.40;;;5.60;99.90;;;;;;5085070;28;20211;-81
2024/01/18 07:06:08;;;;;;;1.70;1.40;;;5.50;99.90;;;;;;5078476;28;20567;-81
2024/01/18 07:08:37;;;;;;;1.80;1.70;;;5.40;99.90;;;;;;5071276;28;20209;-81
2024/01/18 07:11:04;;;;;;;1.90;1.60;;;5.20;99.90;;;;;;5072246;28;20307;-81
2024/01/18 07:13:31;;;;;;;1.52;1.27;;;5.20;99.90;;;;;;5070192;28;20225;-81
2024/01/18 07:15:58;;;;;;;2.50;1.90;;;5.10;99.90;;;;;;5071349;28;20221;-81
2024/01/18 07:18:26;;;;;;;1.67;1.42;;;5.10;99.90;;;;;;5070233;28;20212;-81
2024/01/18 07:20:52;;;;;;;1.33;1.15;;;5.00;99.90;;;;;;5065582;28;20215;-82
2024/01/18 07:23:20;;;;;;;1.45;1.17;;;5.00;99.90;;;;;;5073342;28;20236;-81
2024/01/18 07:25:47;;;;;;;1.65;1.55;;;4.90;99.90;;;;;;5086572;28;20268;-80
2024/01/18 07:28:14;;;;;;;2.30;1.50;;;4.90;99.90;;;;;;5084520;28;20228;-81
2024/01/18 07:30:41;;;;;;;1.20;1.10;;;4.90;99.90;;;;;;5086266;28;20203;-81
2024/01/18 07:33:08;;;;;;;1.20;1.10;;;4.90;99.90;;;;;;5089505;28;20224;-81
2024/01/18 07:35:36;;;;;;;1.40;1.30;;;4.80;99.90;;;;;;5084042;28;20213;-81
2024/01/18 07:38:03;;;;;;;1.20;1.10;;;4.70;99.90;;;;;;5071040;28;20209;-81
2024/01/18 07:40:31;;;;;;;2.47;1.42;;;4.80;99.90;;;;;;5083989;28;20223;-81
2024/01/18 07:43:00;;;;;;;1.33;1.13;;;4.80;99.90;;;;;;5085407;28;20228;-81
2024/01/18 07:45:27;;;;;;;1.40;1.30;;;4.80;99.90;;;;;;5078578;28;20254;-81
2024/01/18 07:47:54;;;;;;;1.70;1.50;;;4.80;99.90;;;;;;5075401;28;20230;-81
2024/01/18 07:50:21;;;;;;;1.50;1.05;;;4.80;99.90;;;;;;5063113;28;20236;-81
2024/01/18 07:52:49;;;;;;;1.67;1.58;;;4.80;99.90;;;;;;5069123;28;20713;-81
2024/01/18 07:55:18;;;;;;;2.47;1.58;;;4.70;99.90;;;;;;5063527;28;20292;-81
2024/01/18 07:57:45;;;;;;;1.45;1.35;;;4.70;99.90;;;;;;5072272;28;20211;-81
2024/01/18 08:00:16;;;;;;;2.55;1.73;;;4.60;99.90;;;;;;5060736;28;20211;-81
2024/01/18 08:02:43;;;;;;;2.45;1.80;;;4.60;99.90;;;;;;5054820;28;20313;-81
2024/01/18 08:05:10;;;;;;;2.38;2.17;;;4.70;99.90;;;;;;5063565;28;20235;-80
2024/01/18 08:07:38;;;;;;;2.63;2.42;;;4.70;99.90;;;;;;5073765;28;20251;-80
2024/01/18 08:10:08;;;;;;;3.30;2.08;;;4.70;99.90;;;;;;5074708;28;20270;-79
2024/01/18 08:12:35;;;;;;;1.50;1.40;;;4.70;99.90;;;;;;5075746;28;20311;-79
2024/01/18 08:15:01;;;;;;;2.10;1.70;;;4.60;99.90;;;;;;5065438;28;20216;-79
2024/01/18 08:17:28;;;;;;;1.90;1.52;;;4.60;99.90;;;;;;5062311;28;20209;-79
2024/01/18 08:19:56;;;;;;;2.13;1.65;;;4.50;99.90;;;;;;5064085;28;20205;-79
2024/01/18 08:22:23;;;;;;;1.75;1.13;;;4.40;99.90;;;;;;5078586;28;20231;-79
2024/01/18 08:24:50;;;;;;;1.30;1.20;;;4.40;99.90;;;;;;5085043;28;20287;-79
2024/01/18 08:27:18;;;;;;;1.30;1.20;;;4.30;99.90;;;;;;5085576;28;20205;-81
2024/01/18 08:29:45;;;;;;;1.42;1.33;;;4.30;99.90;;;;;;5086411;28;20205;-81
2024/01/18 08:32:12;;;;;;;1.10;0.93;;;4.20;99.90;;;;;;5084966;28;20243;-81
2024/01/18 08:34:39;;;;;;;1.30;1.20;;;4.30;99.90;;;;;;5084990;28;20204;-81
2024/01/18 08:37:06;;;;;;;1.52;1.35;;;4.30;99.90;;;;;;5082971;28;20211;-81
2024/01/18 08:39:33;;;;;;;1.65;1.30;;;4.20;99.90;;;;;;5084821;28;20212;-82
2024/01/18 08:42:02;;;;;;;1.48;1.30;;;4.20;99.90;;;;;;5082980;28;20239;-81
2024/01/18 08:44:30;;;;;;;1.10;0.98;;;4.10;99.90;;;;;;5075813;28;20216;-80
2024/01/18 08:46:57;;;;;;;2.95;1.17;;;4.00;99.90;;;;;;5071088;28;20211;-79
2024/01/18 08:49:26;;;;;;;1.35;1.20;;;4.00;99.90;;;;;;5070924;28;20725;-80
2024/01/18 08:51:53;;;;;;;2.15;1.65;;;3.90;99.90;;;;;;5075457;28;20267;-79
2024/01/18 08:54:22;;;;;;;1.60;1.50;;;3.80;99.90;;;;;;5062831;28;20208;-79
2024/01/18 08:56:48;;;;;;;1.35;1.08;;;3.80;99.90;;;;;;5070594;28;20264;-80
2024/01/18 08:59:16;;;;;;;1.10;0.95;;;3.70;99.90;;;;;;5069825;28;20346;-81
2024/01/18 09:01:44;;;;;;;1.90;1.33;;;3.80;99.90;;;;;;5072928;28;20242;-81
2024/01/18 09:04:11;;;;;;;3.60;1.50;;;3.70;99.90;;;;;;5072680;28;20236;-81
2024/01/18 09:06:39;;;;;;;1.13;1.02;;;3.80;99.90;;;;;;5074241;28;20212;-81
2024/01/18 09:09:09;;;;;;;1.88;1.50;;;3.80;99.90;;;;;;5073983;28;20329;-81
2024/01/18 09:11:36;;;;;;;1.45;1.35;;;3.90;99.90;;;;;;5073517;28;20225;-82
2024/01/18 09:14:03;;;;;;;1.65;1.10;;;3.80;99.90;;;;;;5072590;28;20232;-82
2024/01/18 09:16:31;;;;;;;1.35;1.25;;;3.70;99.90;;;;;;5072736;28;20496;-80
2024/01/18 09:19:00;;;;;;;1.45;1.30;;;3.60;99.90;;;;;;5071887;28;20228;-80
2024/01/18 09:21:27;;;;;;;2.10;1.35;;;3.50;99.90;;;;;;5072247;28;20219;-80
2024/01/18 09:23:54;;;;;;;1.50;1.30;;;3.40;99.90;;;;;;5072161;28;20212;-80
2024/01/18 09:26:21;;;;;;;2.63;1.75;;;3.30;99.90;;;;;;5073325;28;20224;-79
2024/01/18 09:28:48;;;;;;;1.27;1.02;;;3.30;99.90;;;;;;5073873;28;20212;-80
2024/01/18 09:31:15;;;;;;;1.27;1.17;;;3.20;99.90;;;;;;5073176;28;20224;-79
2024/01/18 09:33:42;;;;;;;0.90;0.80;;;3.20;99.90;;;;;;5077498;28;20223;-80
2024/01/18 09:36:10;;;;;;;1.10;1.00;;;3.00;99.90;;;;;;5075728;28;20205;-79
2024/01/18 09:38:37;;;;;;;1.35;1.00;;;2.90;99.90;;;;;;5074038;28;20273;-80
2024/01/18 09:41:08;;;;;;;1.05;0.95;;;2.80;99.90;;;;;;5074763;28;20214;-79
2024/01/18 09:43:37;;;;;;;1.10;0.80;;;2.60;99.90;;;;;;5075780;28;20243;-79
2024/01/18 09:46:06;;;;;;;0.90;0.80;;;2.50;99.90;;;;;;5076437;28;20203;-79
2024/01/18 09:48:33;;;;;;;0.93;0.85;;;2.50;99.90;;;;;;5078006;28;20206;-79
2024/01/18 09:51:01;;;;;;;0.75;0.70;;;2.50;99.90;;;;;;5077438;28;20207;-79
2024/01/18 09:53:29;;;;;;;1.00;0.88;;;2.40;99.90;;;;;;5076629;28;20305;-79
2024/01/18 09:56:00;;;;;;;1.00;0.90;;;2.40;99.90;;;;;;5077555;28;20607;-79
2024/01/18 09:58:28;;;;;;;1.48;1.20;;;2.40;99.90;;;;;;5072465;28;20690;-79
2024/01/18 10:00:58;;;;;;;0.80;0.70;;;2.40;99.90;;;;;;5078229;28;20294;-80
2024/01/18 10:03:25;;;;;;;1.02;0.90;;;2.40;99.90;;;;;;5078367;28;20222;-79
2024/01/18 10:05:52;;;;;;;0.70;0.70;;;2.30;99.90;;;;;;5078310;28;20209;-80
2024/01/18 10:08:19;;;;;;;0.90;0.70;;;2.30;99.90;;;;;;5075218;28;20218;-79
2024/01/18 10:10:47;;;;;;;0.80;0.70;;;2.20;99.90;;;;;;5075100;28;20218;-79
2024/01/18 10:13:14;;;;;;;0.90;0.85;;;2.10;99.90;;;;;;5074143;28;20222;-79
2024/01/18 10:15:42;;;;;;;1.00;0.90;;;2.00;99.90;;;;;;5076916;28;20209;-79
2024/01/18 10:18:09;;;;;;;0.75;0.68;;;2.00;99.90;;;;;;5080682;28;20293;-79
2024/01/18 10:20:36;;;;;;;0.70;0.70;;;1.90;99.90;;;;;;5079409;28;20206;-79
2024/01/18 10:23:03;;;;;;;0.98;0.85;;;1.90;99.90;;;;;;5078499;28;20226;-80
2024/01/18 10:25:31;;;;;;;1.15;1.05;;;1.90;99.90;;;;;;5080084;28;20214;-79
2024/01/18 10:28:00;;;;;;;1.30;1.20;;;1.80;99.90;;;;;;5077639;28;20265;-79
2024/01/18 10:30:27;;;;;;;0.75;0.70;;;1.80;99.90;;;;;;5078278;28;20210;-79
2024/01/18 10:32:54;;;;;;;0.70;0.60;;;1.70;99.90;;;;;;5083598;28;20240;-79
2024/01/18 10:35:24;;;;;;;0.88;0.80;;;1.70;99.90;;;;;;5083677;28;20643;-79
2024/01/18 10:38:04;;;;;;;0.90;0.70;;;1.70;99.90;;;;;;5077352;28;20269;-79
2024/01/18 10:40:33;;;;;;;0.80;0.80;;;1.70;99.90;;;;;;5079919;28;20208;-78
2024/01/18 10:43:03;;;;;;;0.80;0.80;;;1.70;99.90;;;;;;5087403;28;20226;-78
2024/01/18 10:45:30;;;;;;;0.88;0.85;;;1.60;99.90;;;;;;5077411;28;20211;-78
2024/01/18 10:47:58;;;;;;;0.90;0.77;;;1.60;99.90;;;;;;5082811;28;20197;-78
2024/01/18 10:50:26;;;;;;;1.10;0.85;;;1.60;99.90;;;;;;5087215;28;20209;-78
2024/01/18 10:52:53;;;;;;;0.80;0.70;;;1.60;99.90;;;;;;5084745;28;20281;-78
2024/01/18 10:55:20;;;;;;;1.10;1.00;;;1.60;99.90;;;;;;5093103;28;20195;-78
2024/01/18 10:57:47;;;;;;;1.00;0.73;;;1.60;99.90;;;;;;5094508;28;20210;-79
2024/01/18 11:00:17;;;;;;;1.17;1.00;;;1.60;99.90;;;;;;5093856;28;20397;-79
2024/01/18 11:02:44;;;;;;;1.10;1.00;;;1.60;99.90;;;;;;5094893;28;20212;-79
2024/01/18 11:05:12;;;;;;;0.80;0.70;;;1.60;99.90;;;;;;5093215;28;20400;-79
2024/01/18 11:07:40;;;;;;;0.80;0.80;;;1.60;99.90;;;;;;5094992;28;20201;-79
2024/01/18 11:10:11;;;;;;;0.82;0.80;;;1.50;99.90;;;;;;5093599;28;20202;-79
2024/01/18 11:12:39;;;;;;;1.23;1.13;;;1.50;99.90;;;;;;5094682;28;20220;-79
2024/01/18 11:15:07;;;;;;;1.63;1.00;;;1.50;99.90;;;;;;5093561;28;20212;-78
2024/01/18 11:17:36;;;;;;;1.02;0.93;;;1.50;99.90;;;;;;5087969;28;21068;-80
2024/01/18 11:20:04;;;;;;;0.80;0.75;;;1.50;99.90;;;;;;5094119;28;20186;-79
2024/01/18 11:22:33;;;;;;;1.60;1.20;;;1.50;99.90;;;;;;5091536;28;20220;-79
2024/01/18 11:25:04;;;;;;;0.93;0.80;;;1.50;99.90;;;;;;5087406;28;20264;-79
2024/01/18 11:27:38;;;;;;;0.70;0.70;;;1.60;99.90;;;;;;5093456;28;20200;-79
2024/01/18 11:30:07;;;;;;;1.00;0.90;;;1.60;99.90;;;;;;5093559;28;20250;-79
2024/01/18 11:32:34;;;;;;;0.80;0.70;;;1.60;99.90;;;;;;5094199;28;20209;-79
2024/01/18 11:35:13;;;;;;;2.22;0.82;;;1.60;99.90;;;;;;5092994;28;20181;-79
2024/01/18 11:37:40;;;;;;;1.00;0.90;;;1.50;99.90;;;;;;5090446;28;20194;-81
2024/01/18 11:40:08;;;;;;;0.80;0.70;;;1.50;99.90;;;;;;5091491;28;20209;-80
2024/01/18 11:42:36;;;;;;;0.70;0.70;;;1.50;99.90;;;;;;5094036;28;20230;-81
2024/01/18 11:45:07;;;;;;;1.55;1.20;;;1.50;99.90;;;;;;5094118;28;20221;-81
2024/01/18 11:47:37;;;;;;;1.00;0.80;;;1.60;99.90;;;;;;5094045;28;20289;-81
2024/01/18 11:50:05;;;;;;;1.60;0.90;;;1.50;99.90;;;;;;5094303;28;20204;-80
2024/01/18 11:52:34;;;;;;;1.00;0.90;;;1.60;99.90;;;;;;5091402;28;20248;-81
2024/01/18 11:55:02;;;;;;;1.10;0.85;;;1.60;99.90;;;;;;5086101;28;20194;-80
2024/01/18 11:57:29;;;;;;;0.90;0.77;;;1.50;99.90;;;;;;5086964;28;20219;-81
2024/01/18 11:59:56;;;;;;;1.20;1.05;;;1.50;99.90;;;;;;5088252;28;20218;-81
2024/01/18 12:02:24;;;;;;;1.20;1.10;;;1.50;99.90;;;;;;5093462;28;20253;-81
2024/01/18 12:04:52;;;;;;;1.27;1.00;;;1.50;99.90;;;;;;5093946;28;20217;-81
2024/01/18 12:07:19;;;;;;;0.98;0.88;;;1.50;99.90;;;;;;5090353;28;20209;-82
2024/01/18 12:09:48;;;;;;;1.60;1.50;;;1.50;99.90;;;;;;5088160;28;20212;-81
2024/01/18 12:12:15;;;;;;;1.10;1.00;;;1.50;99.90;;;;;;5083625;28;20224;-81
2024/01/18 12:14:43;;;;;;;1.50;1.08;;;1.40;99.90;;;;;;5082664;28;20206;-79
2024/01/18 12:17:11;;;;;;;1.70;1.08;;;1.50;99.90;;;;;;5083614;28;20205;-79
2024/01/18 12:19:38;;;;;;;1.38;1.15;;;1.50;99.90;;;;;;5086454;28;20271;-79
2024/01/18 12:22:08;;;;;;;2.33;1.27;;;1.40;99.90;;;;;;5087254;28;20221;-80
2024/01/18 12:24:35;;;;;;;1.90;1.35;;;1.40;99.90;;;;;;5080094;28;20229;-79
2024/01/18 12:27:04;;;;;;;1.27;1.17;;;1.40;99.90;;;;;;5080814;28;20213;-79
2024/01/18 12:29:32;;;;;;;1.65;1.55;;;1.40;99.90;;;;;;5084616;28;20228;-79
2024/01/18 12:32:00;;;;;;;1.23;1.13;;;1.30;99.90;;;;;;5085121;28;20294;-79
2024/01/18 12:34:28;;;;;;;1.35;1.25;;;1.30;99.90;;;;;;5086649;28;20201;-79
2024/01/18 12:36:54;;;;;;;1.65;1.55;;;1.30;99.90;;;;;;5090665;28;20197;-79
2024/01/18 12:39:21;;;;;;;1.30;1.20;;;1.40;99.90;;;;;;5086743;28;20213;-79
2024/01/18 12:41:51;;;;;;;1.42;1.30;;;1.40;99.90;;;;;;5082723;28;20232;-79
2024/01/18 12:44:20;;;;;;;1.55;1.45;;;1.40;99.90;;;;;;5085593;28;20548;-79
2024/01/18 12:46:50;;;;;;;1.75;1.30;;;1.30;99.90;;;;;;5089338;28;20202;-79
2024/01/18 12:49:17;;;;;;;1.83;1.60;;;1.40;99.90;;;;;;5085954;28;20685;-79
2024/01/18 12:51:44;;;;;;;2.08;1.90;;;1.30;99.90;;;;;;5089211;28;20736;-79
2024/01/18 12:54:12;;;;;;;1.80;1.50;;;1.30;99.90;;;;;;5088811;28;20202;-79
2024/01/18 12:56:38;;;;;;;2.53;1.75;;;1.30;99.90;;;;;;5086676;28;20205;-79
2024/01/18 12:59:09;;;;;;;1.58;1.48;;;1.20;99.90;;;;;;5087309;28;20709;-79